sensor_id;sensor_type;location;lat;lon;timestamp;P1;durP1;ratioP1;P2;durP2;ratioP2
11988;SDS011;6054;50.966;7.094;2023-03-19T00:01:24;5.40;;;3.10;;
11988;SDS011;6054;50.966;7.094;2023-03-19T00:03:52;6.65;;;3.40;;
11988;SDS011;6054;50.966;7.094;2023-03-19T00:06:19;4.68;;;2.88;;
11988;SDS011;6054;50.966;7.094;2023-03-19T00:08:46;6.63;;;2.88;;
11988;SDS011;6054;50.966;7.094;2023-03-19T00:11:13;5.25;;;2.70;;
11988;SDS011;6054;50.966;7.094;2023-03-19T00:13:40;4.75;;;2.97;;
11988;SDS011;6054;50.966;7.094;2023-03-19T00:16:08;5.68;;;3.13;;
11988;SDS011;6054;50.966;7.094;2023-03-19T00:18:35;6.80;;;3.25;;
11988;SDS011;6054;50.966;7.094;2023-03-19T00:21:02;5.30;;;2.75;;
11988;SDS011;6054;50.966;7.094;2023-03-19T00:23:29;7.65;;;3.88;;
11988;SDS011;6054;50.966;7.094;2023-03-19T00:25:56;3.65;;;3.05;;
11988;SDS011;6054;50.966;7.094;2023-03-19T00:28:23;4.32;;;3.65;;
11988;SDS011;6054;50.966;7.094;2023-03-19T00:30:50;6.80;;;3.30;;
11988;SDS011;6054;50.966;7.094;2023-03-19T00:33:18;7.68;;;3.47;;
11988;SDS011;6054;50.966;7.094;2023-03-19T00:35:45;6.60;;;3.10;;
11988;SDS011;6054;50.966;7.094;2023-03-19T00:38:12;6.10;;;2.90;;
11988;SDS011;6054;50.966;7.094;2023-03-19T00:40:39;3.40;;;2.95;;
11988;SDS011;6054;50.966;7.094;2023-03-19T00:43:06;2.63;;;2.42;;
11988;SDS011;6054;50.966;7.094;2023-03-19T00:45:33;5.60;;;3.25;;
11988;SDS011;6054;50.966;7.094;2023-03-19T00:48:00;5.05;;;3.40;;
11988;SDS011;6054;50.966;7.094;2023-03-19T00:50:28;4.45;;;2.70;;
11988;SDS011;6054;50.966;7.094;2023-03-19T00:52:54;4.53;;;3.20;;
11988;SDS011;6054;50.966;7.094;2023-03-19T00:55:21;5.53;;;2.80;;
11988;SDS011;6054;50.966;7.094;2023-03-19T00:57:49;4.57;;;3.20;;
11988;SDS011;6054;50.966;7.094;2023-03-19T01:00:16;4.00;;;3.00;;
11988;SDS011;6054;50.966;7.094;2023-03-19T01:02:43;4.63;;;2.85;;
11988;SDS011;6054;50.966;7.094;2023-03-19T01:05:10;6.30;;;3.20;;
11988;SDS011;6054;50.966;7.094;2023-03-19T01:07:38;5.15;;;3.00;;
11988;SDS011;6054;50.966;7.094;2023-03-19T01:10:05;4.45;;;3.70;;
11988;SDS011;6054;50.966;7.094;2023-03-19T01:12:32;3.90;;;2.85;;
11988;SDS011;6054;50.966;7.094;2023-03-19T01:14:59;4.22;;;2.70;;
11988;SDS011;6054;50.966;7.094;2023-03-19T01:17:26;4.85;;;2.80;;
11988;SDS011;6054;50.966;7.094;2023-03-19T01:19:53;6.72;;;2.97;;
11988;SDS011;6054;50.966;7.094;2023-03-19T01:22:20;3.30;;;2.60;;
11988;SDS011;6054;50.966;7.094;2023-03-19T01:24:48;4.60;;;2.78;;
11988;SDS011;6054;50.966;7.094;2023-03-19T01:27:15;5.97;;;3.28;;
11988;SDS011;6054;50.966;7.094;2023-03-19T01:29:42;5.63;;;3.45;;
11988;SDS011;6054;50.966;7.094;2023-03-19T01:32:08;5.75;;;3.13;;
11988;SDS011;6054;50.966;7.094;2023-03-19T01:34:35;5.97;;;3.00;;
11988;SDS011;6054;50.966;7.094;2023-03-19T01:37:02;3.92;;;2.80;;
11988;SDS011;6054;50.966;7.094;2023-03-19T01:39:29;4.88;;;2.88;;
11988;SDS011;6054;50.966;7.094;2023-03-19T01:42:00;3.97;;;3.05;;
11988;SDS011;6054;50.966;7.094;2023-03-19T01:44:28;6.15;;;2.95;;
11988;SDS011;6054;50.966;7.094;2023-03-19T01:46:57;7.38;;;3.30;;
11988;SDS011;6054;50.966;7.094;2023-03-19T01:49:26;3.90;;;2.72;;
11988;SDS011;6054;50.966;7.094;2023-03-19T01:51:55;5.53;;;3.20;;
11988;SDS011;6054;50.966;7.094;2023-03-19T01:54:25;4.45;;;2.72;;
11988;SDS011;6054;50.966;7.094;2023-03-19T01:56:56;5.53;;;3.30;;
11988;SDS011;6054;50.966;7.094;2023-03-19T01:59:27;5.13;;;3.08;;
11988;SDS011;6054;50.966;7.094;2023-03-19T02:01:58;4.30;;;2.60;;
11988;SDS011;6054;50.966;7.094;2023-03-19T02:04:28;5.68;;;3.30;;
11988;SDS011;6054;50.966;7.094;2023-03-19T02:06:56;4.53;;;2.80;;
11988;SDS011;6054;50.966;7.094;2023-03-19T02:09:25;3.78;;;2.47;;
11988;SDS011;6054;50.966;7.094;2023-03-19T02:11:53;5.47;;;2.70;;
11988;SDS011;6054;50.966;7.094;2023-03-19T02:14:21;4.68;;;2.78;;
11988;SDS011;6054;50.966;7.094;2023-03-19T02:16:49;6.28;;;2.75;;
11988;SDS011;6054;50.966;7.094;2023-03-19T02:19:18;7.00;;;2.85;;
11988;SDS011;6054;50.966;7.094;2023-03-19T02:21:50;6.57;;;3.38;;
11988;SDS011;6054;50.966;7.094;2023-03-19T02:24:19;3.88;;;2.60;;
11988;SDS011;6054;50.966;7.094;2023-03-19T02:26:51;4.03;;;2.33;;
11988;SDS011;6054;50.966;7.094;2023-03-19T02:29:18;6.72;;;2.20;;
11988;SDS011;6054;50.966;7.094;2023-03-19T02:31:45;5.75;;;1.98;;
11988;SDS011;6054;50.966;7.094;2023-03-19T02:37:02;3.20;;;2.03;;
11988;SDS011;6054;50.966;7.094;2023-03-19T02:39:36;4.20;;;2.28;;
11988;SDS011;6054;50.966;7.094;2023-03-19T02:42:09;4.43;;;2.22;;
11988;SDS011;6054;50.966;7.094;2023-03-19T02:44:37;7.50;;;2.78;;
11988;SDS011;6054;50.966;7.094;2023-03-19T02:47:04;3.90;;;2.13;;
11988;SDS011;6054;50.966;7.094;2023-03-19T02:49:31;2.38;;;2.17;;
11988;SDS011;6054;50.966;7.094;2023-03-19T02:51:58;2.40;;;2.00;;
11988;SDS011;6054;50.966;7.094;2023-03-19T02:54:24;4.03;;;2.20;;
11988;SDS011;6054;50.966;7.094;2023-03-19T02:56:51;3.05;;;1.80;;
11988;SDS011;6054;50.966;7.094;2023-03-19T02:59:19;4.38;;;2.33;;
11988;SDS011;6054;50.966;7.094;2023-03-19T03:01:46;3.63;;;2.13;;
11988;SDS011;6054;50.966;7.094;2023-03-19T03:04:13;1.98;;;1.80;;
11988;SDS011;6054;50.966;7.094;2023-03-19T03:06:40;2.97;;;1.85;;
11988;SDS011;6054;50.966;7.094;2023-03-19T03:09:07;5.75;;;2.00;;
11988;SDS011;6054;50.966;7.094;2023-03-19T03:11:34;2.03;;;1.80;;
11988;SDS011;6054;50.966;7.094;2023-03-19T03:14:01;2.58;;;1.58;;
11988;SDS011;6054;50.966;7.094;2023-03-19T03:16:30;3.58;;;1.80;;
11988;SDS011;6054;50.966;7.094;2023-03-19T03:18:57;3.20;;;1.88;;
11988;SDS011;6054;50.966;7.094;2023-03-19T03:21:24;1.70;;;1.60;;
11988;SDS011;6054;50.966;7.094;2023-03-19T03:23:51;3.88;;;2.30;;
11988;SDS011;6054;50.966;7.094;2023-03-19T03:26:17;2.30;;;1.67;;
11988;SDS011;6054;50.966;7.094;2023-03-19T03:28:45;3.75;;;1.80;;
11988;SDS011;6054;50.966;7.094;2023-03-19T03:31:11;6.18;;;2.10;;
11988;SDS011;6054;50.966;7.094;2023-03-19T03:33:40;4.03;;;1.95;;
11988;SDS011;6054;50.966;7.094;2023-03-19T03:36:07;3.92;;;1.80;;
11988;SDS011;6054;50.966;7.094;2023-03-19T03:38:34;4.85;;;2.30;;
11988;SDS011;6054;50.966;7.094;2023-03-19T03:41:01;5.18;;;1.60;;
11988;SDS011;6054;50.966;7.094;2023-03-19T03:43:28;2.75;;;2.00;;
11988;SDS011;6054;50.966;7.094;2023-03-19T03:45:55;3.85;;;1.75;;
11988;SDS011;6054;50.966;7.094;2023-03-19T03:48:22;3.80;;;1.60;;
11988;SDS011;6054;50.966;7.094;2023-03-19T03:50:51;5.95;;;1.95;;
11988;SDS011;6054;50.966;7.094;2023-03-19T03:53:18;5.28;;;1.80;;
11988;SDS011;6054;50.966;7.094;2023-03-19T03:55:44;3.67;;;1.58;;
11988;SDS011;6054;50.966;7.094;2023-03-19T03:58:11;2.63;;;1.58;;
11988;SDS011;6054;50.966;7.094;2023-03-19T04:00:38;1.40;;;1.30;;
11988;SDS011;6054;50.966;7.094;2023-03-19T04:03:05;4.38;;;1.40;;
11988;SDS011;6054;50.966;7.094;2023-03-19T04:05:32;3.60;;;1.52;;
11988;SDS011;6054;50.966;7.094;2023-03-19T04:08:01;3.10;;;1.70;;
11988;SDS011;6054;50.966;7.094;2023-03-19T04:10:28;2.53;;;1.42;;
11988;SDS011;6054;50.966;7.094;2023-03-19T04:12:56;3.25;;;1.50;;
11988;SDS011;6054;50.966;7.094;2023-03-19T04:15:23;3.08;;;1.70;;
11988;SDS011;6054;50.966;7.094;2023-03-19T04:17:50;2.63;;;1.50;;
11988;SDS011;6054;50.966;7.094;2023-03-19T04:20:17;5.18;;;1.60;;
11988;SDS011;6054;50.966;7.094;2023-03-19T04:22:46;2.88;;;1.60;;
11988;SDS011;6054;50.966;7.094;2023-03-19T04:25:15;4.15;;;2.20;;
11988;SDS011;6054;50.966;7.094;2023-03-19T04:27:42;2.88;;;1.70;;
11988;SDS011;6054;50.966;7.094;2023-03-19T04:30:10;2.35;;;1.67;;
11988;SDS011;6054;50.966;7.094;2023-03-19T04:32:38;4.55;;;1.70;;
11988;SDS011;6054;50.966;7.094;2023-03-19T04:35:05;3.33;;;1.52;;
11988;SDS011;6054;50.966;7.094;2023-03-19T04:37:32;3.22;;;1.83;;
11988;SDS011;6054;50.966;7.094;2023-03-19T04:39:59;2.75;;;1.50;;
11988;SDS011;6054;50.966;7.094;2023-03-19T04:42:27;3.40;;;1.90;;
11988;SDS011;6054;50.966;7.094;2023-03-19T04:44:54;4.85;;;2.15;;
11988;SDS011;6054;50.966;7.094;2023-03-19T04:47:21;2.33;;;1.60;;
11988;SDS011;6054;50.966;7.094;2023-03-19T04:49:48;3.58;;;1.73;;
11988;SDS011;6054;50.966;7.094;2023-03-19T04:52:15;2.17;;;1.40;;
11988;SDS011;6054;50.966;7.094;2023-03-19T04:54:42;4.43;;;1.63;;
11988;SDS011;6054;50.966;7.094;2023-03-19T04:57:09;3.72;;;2.10;;
11988;SDS011;6054;50.966;7.094;2023-03-19T04:59:37;3.38;;;2.00;;
11988;SDS011;6054;50.966;7.094;2023-03-19T05:02:04;2.60;;;1.50;;
11988;SDS011;6054;50.966;7.094;2023-03-19T05:04:32;2.63;;;1.67;;
11988;SDS011;6054;50.966;7.094;2023-03-19T05:06:58;3.25;;;1.48;;
11988;SDS011;6054;50.966;7.094;2023-03-19T05:09:25;1.50;;;1.40;;
11988;SDS011;6054;50.966;7.094;2023-03-19T05:11:54;3.58;;;1.95;;
11988;SDS011;6054;50.966;7.094;2023-03-19T05:14:22;2.20;;;1.33;;
11988;SDS011;6054;50.966;7.094;2023-03-19T05:16:50;2.42;;;1.67;;
11988;SDS011;6054;50.966;7.094;2023-03-19T05:19:17;3.13;;;1.60;;
11988;SDS011;6054;50.966;7.094;2023-03-19T05:21:44;2.63;;;1.40;;
11988;SDS011;6054;50.966;7.094;2023-03-19T05:24:11;3.00;;;1.58;;
11988;SDS011;6054;50.966;7.094;2023-03-19T05:26:38;4.00;;;1.50;;
11988;SDS011;6054;50.966;7.094;2023-03-19T05:29:05;5.13;;;1.40;;
11988;SDS011;6054;50.966;7.094;2023-03-19T05:31:34;4.10;;;1.70;;
11988;SDS011;6054;50.966;7.094;2023-03-19T05:34:03;2.15;;;1.50;;
11988;SDS011;6054;50.966;7.094;2023-03-19T05:36:30;3.45;;;1.50;;
11988;SDS011;6054;50.966;7.094;2023-03-19T05:38:57;3.42;;;1.98;;
11988;SDS011;6054;50.966;7.094;2023-03-19T05:41:23;1.63;;;1.38;;
11988;SDS011;6054;50.966;7.094;2023-03-19T05:43:51;2.08;;;1.30;;
11988;SDS011;6054;50.966;7.094;2023-03-19T05:46:17;2.90;;;1.30;;
11988;SDS011;6054;50.966;7.094;2023-03-19T05:48:44;3.25;;;1.35;;
11988;SDS011;6054;50.966;7.094;2023-03-19T05:51:13;5.15;;;1.55;;
11988;SDS011;6054;50.966;7.094;2023-03-19T05:53:40;1.30;;;1.20;;
11988;SDS011;6054;50.966;7.094;2023-03-19T05:56:06;4.25;;;1.33;;
11988;SDS011;6054;50.966;7.094;2023-03-19T05:58:33;2.53;;;1.27;;
11988;SDS011;6054;50.966;7.094;2023-03-19T06:01:01;3.58;;;1.30;;
11988;SDS011;6054;50.966;7.094;2023-03-19T06:03:27;2.15;;;1.20;;
11988;SDS011;6054;50.966;7.094;2023-03-19T06:05:54;1.90;;;1.20;;
11988;SDS011;6054;50.966;7.094;2023-03-19T06:08:23;4.55;;;1.35;;
11988;SDS011;6054;50.966;7.094;2023-03-19T06:10:51;1.38;;;1.27;;
11988;SDS011;6054;50.966;7.094;2023-03-19T06:13:18;1.42;;;1.30;;
11988;SDS011;6054;50.966;7.094;2023-03-19T06:15:46;2.13;;;1.27;;
11988;SDS011;6054;50.966;7.094;2023-03-19T06:18:13;3.55;;;1.50;;
11988;SDS011;6054;50.966;7.094;2023-03-19T06:20:40;1.27;;;1.00;;
11988;SDS011;6054;50.966;7.094;2023-03-19T06:23:07;2.30;;;1.05;;
11988;SDS011;6054;50.966;7.094;2023-03-19T06:25:36;2.92;;;1.10;;
11988;SDS011;6054;50.966;7.094;2023-03-19T06:28:03;2.28;;;1.05;;
11988;SDS011;6054;50.966;7.094;2023-03-19T06:30:30;2.15;;;1.25;;
11988;SDS011;6054;50.966;7.094;2023-03-19T06:32:57;1.73;;;1.17;;
11988;SDS011;6054;50.966;7.094;2023-03-19T06:35:24;1.52;;;1.10;;
11988;SDS011;6054;50.966;7.094;2023-03-19T06:37:51;2.70;;;1.30;;
11988;SDS011;6054;50.966;7.094;2023-03-19T06:40:18;2.92;;;1.30;;
11988;SDS011;6054;50.966;7.094;2023-03-19T06:42:46;1.48;;;1.30;;
11988;SDS011;6054;50.966;7.094;2023-03-19T06:45:14;2.67;;;1.10;;
11988;SDS011;6054;50.966;7.094;2023-03-19T06:47:42;0.98;;;0.90;;
11988;SDS011;6054;50.966;7.094;2023-03-19T06:50:10;0.93;;;0.93;;
11988;SDS011;6054;50.966;7.094;2023-03-19T06:52:37;1.27;;;1.08;;
11988;SDS011;6054;50.966;7.094;2023-03-19T06:55:05;1.35;;;0.90;;
11988;SDS011;6054;50.966;7.094;2023-03-19T06:57:32;0.80;;;0.80;;
11988;SDS011;6054;50.966;7.094;2023-03-19T07:00:01;5.03;;;1.20;;
11988;SDS011;6054;50.966;7.094;2023-03-19T07:02:29;2.13;;;1.20;;
11988;SDS011;6054;50.966;7.094;2023-03-19T07:04:55;2.50;;;1.00;;
11988;SDS011;6054;50.966;7.094;2023-03-19T07:07:22;1.70;;;1.10;;
11988;SDS011;6054;50.966;7.094;2023-03-19T07:09:49;1.70;;;0.85;;
11988;SDS011;6054;50.966;7.094;2023-03-19T07:12:16;1.20;;;1.10;;
11988;SDS011;6054;50.966;7.094;2023-03-19T07:14:43;1.80;;;0.93;;
11988;SDS011;6054;50.966;7.094;2023-03-19T07:17:11;1.40;;;0.98;;
11988;SDS011;6054;50.966;7.094;2023-03-19T07:19:38;1.30;;;0.90;;
11988;SDS011;6054;50.966;7.094;2023-03-19T07:22:04;0.90;;;0.82;;
11988;SDS011;6054;50.966;7.094;2023-03-19T07:24:31;1.20;;;0.93;;
11988;SDS011;6054;50.966;7.094;2023-03-19T07:26:58;1.98;;;1.10;;
11988;SDS011;6054;50.966;7.094;2023-03-19T07:29:26;2.60;;;1.00;;
11988;SDS011;6054;50.966;7.094;2023-03-19T07:31:53;1.75;;;1.00;;
11988;SDS011;6054;50.966;7.094;2023-03-19T07:34:21;0.95;;;0.93;;
11988;SDS011;6054;50.966;7.094;2023-03-19T07:36:48;1.45;;;1.00;;
11988;SDS011;6054;50.966;7.094;2023-03-19T07:39:15;1.08;;;0.98;;
11988;SDS011;6054;50.966;7.094;2023-03-19T07:41:42;1.20;;;1.02;;
11988;SDS011;6054;50.966;7.094;2023-03-19T07:44:11;2.88;;;0.90;;
11988;SDS011;6054;50.966;7.094;2023-03-19T07:46:38;2.45;;;0.98;;
11988;SDS011;6054;50.966;7.094;2023-03-19T07:49:05;1.20;;;1.10;;
11988;SDS011;6054;50.966;7.094;2023-03-19T07:51:34;1.83;;;1.10;;
11988;SDS011;6054;50.966;7.094;2023-03-19T07:54:00;1.85;;;1.00;;
11988;SDS011;6054;50.966;7.094;2023-03-19T07:56:27;1.35;;;1.00;;
11988;SDS011;6054;50.966;7.094;2023-03-19T07:58:54;1.08;;;1.00;;
11988;SDS011;6054;50.966;7.094;2023-03-19T08:01:21;1.65;;;1.10;;
11988;SDS011;6054;50.966;7.094;2023-03-19T08:03:48;1.05;;;0.93;;
11988;SDS011;6054;50.966;7.094;2023-03-19T08:06:15;1.65;;;1.20;;
11988;SDS011;6054;50.966;7.094;2023-03-19T08:08:43;1.17;;;1.08;;
11988;SDS011;6054;50.966;7.094;2023-03-19T08:11:10;1.17;;;1.00;;
11988;SDS011;6054;50.966;7.094;2023-03-19T08:13:36;1.65;;;0.90;;
11988;SDS011;6054;50.966;7.094;2023-03-19T08:16:04;1.95;;;1.33;;
11988;SDS011;6054;50.966;7.094;2023-03-19T08:18:31;2.25;;;1.20;;
11988;SDS011;6054;50.966;7.094;2023-03-19T08:20:57;0.82;;;0.82;;
11988;SDS011;6054;50.966;7.094;2023-03-19T08:23:24;0.90;;;0.90;;
11988;SDS011;6054;50.966;7.094;2023-03-19T08:25:53;1.10;;;1.00;;
11988;SDS011;6054;50.966;7.094;2023-03-19T08:28:21;1.40;;;1.20;;
11988;SDS011;6054;50.966;7.094;2023-03-19T08:30:48;2.20;;;1.40;;
11988;SDS011;6054;50.966;7.094;2023-03-19T08:33:15;1.23;;;1.23;;
11988;SDS011;6054;50.966;7.094;2023-03-19T08:35:42;1.85;;;1.50;;
11988;SDS011;6054;50.966;7.094;2023-03-19T08:38:08;2.08;;;0.90;;
11988;SDS011;6054;50.966;7.094;2023-03-19T08:40:35;1.40;;;1.30;;
11988;SDS011;6054;50.966;7.094;2023-03-19T08:43:03;2.47;;;1.30;;
11988;SDS011;6054;50.966;7.094;2023-03-19T08:45:30;3.42;;;1.33;;
11988;SDS011;6054;50.966;7.094;2023-03-19T08:47:57;2.25;;;1.27;;
11988;SDS011;6054;50.966;7.094;2023-03-19T08:50:24;1.60;;;1.50;;
11988;SDS011;6054;50.966;7.094;2023-03-19T08:52:51;2.55;;;1.98;;
11988;SDS011;6054;50.966;7.094;2023-03-19T08:55:18;1.73;;;1.63;;
11988;SDS011;6054;50.966;7.094;2023-03-19T09:00:14;2.22;;;1.75;;
11988;SDS011;6054;50.966;7.094;2023-03-19T09:02:43;2.08;;;1.88;;
11988;SDS011;6054;50.966;7.094;2023-03-19T09:05:10;1.75;;;1.60;;
11988;SDS011;6054;50.966;7.094;2023-03-19T09:07:37;2.15;;;1.48;;
11988;SDS011;6054;50.966;7.094;2023-03-19T09:10:04;1.70;;;1.60;;
11988;SDS011;6054;50.966;7.094;2023-03-19T09:12:31;1.63;;;1.52;;
11988;SDS011;6054;50.966;7.094;2023-03-19T09:14:58;1.92;;;1.83;;
11988;SDS011;6054;50.966;7.094;2023-03-19T09:17:26;2.20;;;1.55;;
11988;SDS011;6054;50.966;7.094;2023-03-19T09:19:53;1.75;;;1.65;;
11988;SDS011;6054;50.966;7.094;2023-03-19T09:22:19;2.50;;;1.67;;
11988;SDS011;6054;50.966;7.094;2023-03-19T09:24:46;2.22;;;1.60;;
11988;SDS011;6054;50.966;7.094;2023-03-19T09:27:13;1.58;;;1.48;;
11988;SDS011;6054;50.966;7.094;2023-03-19T09:29:39;1.98;;;1.60;;
11988;SDS011;6054;50.966;7.094;2023-03-19T09:32:06;1.50;;;1.40;;
11988;SDS011;6054;50.966;7.094;2023-03-19T09:34:34;1.60;;;1.40;;
11988;SDS011;6054;50.966;7.094;2023-03-19T09:37:01;1.85;;;1.70;;
11988;SDS011;6054;50.966;7.094;2023-03-19T09:39:28;5.95;;;2.00;;
11988;SDS011;6054;50.966;7.094;2023-03-19T09:41:59;1.70;;;1.60;;
11988;SDS011;6054;50.966;7.094;2023-03-19T09:44:33;1.50;;;1.40;;
11988;SDS011;6054;50.966;7.094;2023-03-19T09:47:07;1.55;;;1.45;;
11988;SDS011;6054;50.966;7.094;2023-03-19T09:49:43;1.70;;;1.60;;
11988;SDS011;6054;50.966;7.094;2023-03-19T09:52:15;1.58;;;1.40;;
11988;SDS011;6054;50.966;7.094;2023-03-19T09:54:53;1.50;;;1.40;;
11988;SDS011;6054;50.966;7.094;2023-03-19T09:57:22;3.53;;;1.50;;
11988;SDS011;6054;50.966;7.094;2023-03-19T09:59:49;1.48;;;1.27;;
11988;SDS011;6054;50.966;7.094;2023-03-19T10:02:26;1.42;;;1.10;;
11988;SDS011;6054;50.966;7.094;2023-03-19T10:05:05;1.40;;;1.35;;
11988;SDS011;6054;50.966;7.094;2023-03-19T10:07:54;1.40;;;1.00;;
11988;SDS011;6054;50.966;7.094;2023-03-19T10:10:40;1.27;;;1.23;;
11988;SDS011;6054;50.966;7.094;2023-03-19T10:13:17;1.42;;;1.23;;
11988;SDS011;6054;50.966;7.094;2023-03-19T10:15:55;1.58;;;1.48;;
11988;SDS011;6054;50.966;7.094;2023-03-19T10:18:25;2.10;;;1.30;;
11988;SDS011;6054;50.966;7.094;2023-03-19T10:20:57;1.67;;;1.55;;
11988;SDS011;6054;50.966;7.094;2023-03-19T10:23:31;1.20;;;1.20;;
11988;SDS011;6054;50.966;7.094;2023-03-19T10:26:08;1.40;;;1.30;;
11988;SDS011;6054;50.966;7.094;2023-03-19T10:28:38;1.98;;;1.38;;
11988;SDS011;6054;50.966;7.094;2023-03-19T10:31:13;2.15;;;1.30;;
11988;SDS011;6054;50.966;7.094;2023-03-19T10:33:51;1.40;;;1.30;;
11988;SDS011;6054;50.966;7.094;2023-03-19T10:36:34;1.95;;;1.40;;
11988;SDS011;6054;50.966;7.094;2023-03-19T10:39:01;1.90;;;1.20;;
11988;SDS011;6054;50.966;7.094;2023-03-19T10:41:33;1.30;;;1.20;;
11988;SDS011;6054;50.966;7.094;2023-03-19T10:44:18;1.58;;;1.25;;
11988;SDS011;6054;50.966;7.094;2023-03-19T10:46:52;1.33;;;1.20;;
11988;SDS011;6054;50.966;7.094;2023-03-19T10:49:23;1.50;;;1.40;;
11988;SDS011;6054;50.966;7.094;2023-03-19T10:51:51;1.70;;;1.50;;
11988;SDS011;6054;50.966;7.094;2023-03-19T10:54:23;1.50;;;1.40;;
11988;SDS011;6054;50.966;7.094;2023-03-19T10:56:50;1.58;;;1.45;;
11988;SDS011;6054;50.966;7.094;2023-03-19T10:59:21;1.58;;;1.48;;
11988;SDS011;6054;50.966;7.094;2023-03-19T11:01:50;1.70;;;1.45;;
11988;SDS011;6054;50.966;7.094;2023-03-19T11:04:22;1.92;;;1.83;;
11988;SDS011;6054;50.966;7.094;2023-03-19T11:06:51;2.88;;;1.60;;
11988;SDS011;6054;50.966;7.094;2023-03-19T11:09:22;1.55;;;1.45;;
11988;SDS011;6054;50.966;7.094;2023-03-19T11:11:56;2.88;;;1.60;;
11988;SDS011;6054;50.966;7.094;2023-03-19T11:14:25;1.90;;;1.80;;
11988;SDS011;6054;50.966;7.094;2023-03-19T11:17:02;2.75;;;1.67;;
11988;SDS011;6054;50.966;7.094;2023-03-19T11:19:32;3.10;;;1.85;;
11988;SDS011;6054;50.966;7.094;2023-03-19T11:22:08;1.70;;;1.60;;
11988;SDS011;6054;50.966;7.094;2023-03-19T11:24:41;1.58;;;1.40;;
11988;SDS011;6054;50.966;7.094;2023-03-19T11:27:15;2.75;;;1.50;;
11988;SDS011;6054;50.966;7.094;2023-03-19T11:29:42;1.83;;;1.55;;
11988;SDS011;6054;50.966;7.094;2023-03-19T11:32:13;1.50;;;1.40;;
11988;SDS011;6054;50.966;7.094;2023-03-19T11:35:04;1.52;;;1.38;;
11988;SDS011;6054;50.966;7.094;2023-03-19T11:37:42;1.50;;;1.40;;
11988;SDS011;6054;50.966;7.094;2023-03-19T11:40:19;1.15;;;1.15;;
11988;SDS011;6054;50.966;7.094;2023-03-19T11:42:58;1.30;;;1.20;;
11988;SDS011;6054;50.966;7.094;2023-03-19T11:45:34;2.10;;;1.30;;
11988;SDS011;6054;50.966;7.094;2023-03-19T11:48:17;1.70;;;1.13;;
11988;SDS011;6054;50.966;7.094;2023-03-19T11:50:55;2.10;;;1.17;;
11988;SDS011;6054;50.966;7.094;2023-03-19T11:53:28;1.50;;;1.40;;
11988;SDS011;6054;50.966;7.094;2023-03-19T11:56:01;4.53;;;1.40;;
11988;SDS011;6054;50.966;7.094;2023-03-19T11:58:46;1.55;;;1.30;;
11988;SDS011;6054;50.966;7.094;2023-03-19T12:01:27;1.30;;;1.20;;
11988;SDS011;6054;50.966;7.094;2023-03-19T12:07:12;1.45;;;1.27;;
11988;SDS011;6054;50.966;7.094;2023-03-19T12:09:51;2.78;;;1.50;;
11988;SDS011;6054;50.966;7.094;2023-03-19T12:12:28;1.70;;;1.60;;
11988;SDS011;6054;50.966;7.094;2023-03-19T12:15:02;2.97;;;1.40;;
11988;SDS011;6054;50.966;7.094;2023-03-19T12:17:39;1.75;;;1.65;;
11988;SDS011;6054;50.966;7.094;2023-03-19T12:20:18;2.65;;;1.52;;
11988;SDS011;6054;50.966;7.094;2023-03-19T12:22:57;1.48;;;1.35;;
11988;SDS011;6054;50.966;7.094;2023-03-19T12:25:43;1.75;;;1.65;;
11988;SDS011;6054;50.966;7.094;2023-03-19T12:28:24;1.00;;;1.00;;
11988;SDS011;6054;50.966;7.094;2023-03-19T12:30:59;1.77;;;0.77;;
11988;SDS011;6054;50.966;7.094;2023-03-19T12:33:36;0.75;;;0.75;;
11988;SDS011;6054;50.966;7.094;2023-03-19T12:36:12;1.05;;;0.90;;
11988;SDS011;6054;50.966;7.094;2023-03-19T12:38:43;1.23;;;1.10;;
11988;SDS011;6054;50.966;7.094;2023-03-19T12:41:15;1.33;;;1.20;;
11988;SDS011;6054;50.966;7.094;2023-03-19T12:43:47;3.33;;;1.80;;
11988;SDS011;6054;50.966;7.094;2023-03-19T12:46:22;1.88;;;1.33;;
11988;SDS011;6054;50.966;7.094;2023-03-19T12:48:53;1.42;;;1.20;;
11988;SDS011;6054;50.966;7.094;2023-03-19T12:51:24;1.35;;;1.20;;
11988;SDS011;6054;50.966;7.094;2023-03-19T12:53:55;1.83;;;1.17;;
11988;SDS011;6054;50.966;7.094;2023-03-19T12:56:30;1.10;;;1.10;;
11988;SDS011;6054;50.966;7.094;2023-03-19T12:59:04;1.00;;;0.90;;
11988;SDS011;6054;50.966;7.094;2023-03-19T13:01:37;2.45;;;1.08;;
11988;SDS011;6054;50.966;7.094;2023-03-19T13:04:08;1.45;;;1.10;;
11988;SDS011;6054;50.966;7.094;2023-03-19T13:06:40;2.45;;;1.10;;
11988;SDS011;6054;50.966;7.094;2023-03-19T13:09:14;0.80;;;0.80;;
11988;SDS011;6054;50.966;7.094;2023-03-19T13:11:47;1.60;;;0.90;;
11988;SDS011;6054;50.966;7.094;2023-03-19T13:14:21;1.55;;;1.00;;
11988;SDS011;6054;50.966;7.094;2023-03-19T13:16:54;1.67;;;1.08;;
11988;SDS011;6054;50.966;7.094;2023-03-19T13:19:27;1.17;;;1.00;;
11988;SDS011;6054;50.966;7.094;2023-03-19T13:22:00;1.63;;;1.05;;
11988;SDS011;6054;50.966;7.094;2023-03-19T13:24:32;0.93;;;0.90;;
11988;SDS011;6054;50.966;7.094;2023-03-19T13:27:04;0.98;;;0.98;;
11988;SDS011;6054;50.966;7.094;2023-03-19T13:29:32;1.67;;;1.10;;
11988;SDS011;6054;50.966;7.094;2023-03-19T13:32:03;0.98;;;0.90;;
11988;SDS011;6054;50.966;7.094;2023-03-19T13:34:33;1.17;;;1.08;;
11988;SDS011;6054;50.966;7.094;2023-03-19T13:37:03;1.10;;;0.98;;
11988;SDS011;6054;50.966;7.094;2023-03-19T13:39:36;1.20;;;1.10;;
11988;SDS011;6054;50.966;7.094;2023-03-19T13:42:15;3.30;;;1.23;;
11988;SDS011;6054;50.966;7.094;2023-03-19T13:44:59;1.10;;;1.10;;
11988;SDS011;6054;50.966;7.094;2023-03-19T13:47:38;1.90;;;1.00;;
11988;SDS011;6054;50.966;7.094;2023-03-19T13:50:23;0.85;;;0.85;;
11988;SDS011;6054;50.966;7.094;2023-03-19T13:52:52;0.90;;;0.90;;
11988;SDS011;6054;50.966;7.094;2023-03-19T13:55:49;0.68;;;0.60;;
11988;SDS011;6054;50.966;7.094;2023-03-19T13:58:21;1.00;;;0.90;;
11988;SDS011;6054;50.966;7.094;2023-03-19T14:01:11;2.33;;;1.08;;
11988;SDS011;6054;50.966;7.094;2023-03-19T14:04:03;1.05;;;0.85;;
11988;SDS011;6054;50.966;7.094;2023-03-19T14:06:33;1.17;;;0.73;;
11988;SDS011;6054;50.966;7.094;2023-03-19T14:09:04;1.02;;;0.95;;
11988;SDS011;6054;50.966;7.094;2023-03-19T14:11:33;0.68;;;0.68;;
11988;SDS011;6054;50.966;7.094;2023-03-19T14:14:02;1.70;;;1.55;;
11988;SDS011;6054;50.966;7.094;2023-03-19T14:16:31;0.82;;;0.70;;
11988;SDS011;6054;50.966;7.094;2023-03-19T14:19:02;2.33;;;1.10;;
11988;SDS011;6054;50.966;7.094;2023-03-19T14:21:38;1.75;;;0.90;;
11988;SDS011;6054;50.966;7.094;2023-03-19T14:24:20;0.90;;;0.90;;
11988;SDS011;6054;50.966;7.094;2023-03-19T14:26:53;2.78;;;0.90;;
11988;SDS011;6054;50.966;7.094;2023-03-19T14:29:24;0.93;;;0.93;;
11988;SDS011;6054;50.966;7.094;2023-03-19T14:31:52;1.08;;;0.90;;
11988;SDS011;6054;50.966;7.094;2023-03-19T14:34:23;1.63;;;1.10;;
11988;SDS011;6054;50.966;7.094;2023-03-19T14:36:56;1.10;;;0.93;;
11988;SDS011;6054;50.966;7.094;2023-03-19T14:39:27;0.52;;;0.52;;
11988;SDS011;6054;50.966;7.094;2023-03-19T14:41:58;0.80;;;0.63;;
11988;SDS011;6054;50.966;7.094;2023-03-19T14:44:38;0.50;;;0.50;;
11988;SDS011;6054;50.966;7.094;2023-03-19T14:47:43;0.40;;;0.40;;
11988;SDS011;6054;50.966;7.094;2023-03-19T14:50:29;0.45;;;0.45;;
11988;SDS011;6054;50.966;7.094;2023-03-19T14:53:14;0.93;;;0.60;;
11988;SDS011;6054;50.966;7.094;2023-03-19T14:55:46;1.08;;;0.50;;
11988;SDS011;6054;50.966;7.094;2023-03-19T14:58:15;0.60;;;0.60;;
11988;SDS011;6054;50.966;7.094;2023-03-19T15:00:45;0.70;;;0.70;;
11988;SDS011;6054;50.966;7.094;2023-03-19T15:03:21;0.55;;;0.50;;
11988;SDS011;6054;50.966;7.094;2023-03-19T15:05:57;0.60;;;0.50;;
11988;SDS011;6054;50.966;7.094;2023-03-19T15:08:26;0.70;;;0.70;;
11988;SDS011;6054;50.966;7.094;2023-03-19T15:10:59;0.65;;;0.65;;
11988;SDS011;6054;50.966;7.094;2023-03-19T15:13:36;1.27;;;0.98;;
11988;SDS011;6054;50.966;7.094;2023-03-19T15:16:27;1.10;;;1.10;;
11988;SDS011;6054;50.966;7.094;2023-03-19T15:19:02;1.38;;;1.20;;
11988;SDS011;6054;50.966;7.094;2023-03-19T15:21:30;1.15;;;0.90;;
11988;SDS011;6054;50.966;7.094;2023-03-19T15:23:57;1.35;;;1.20;;
11988;SDS011;6054;50.966;7.094;2023-03-19T15:26:30;0.80;;;0.80;;